Time;durP1;ratioP1;P1;durP2;ratioP2;P2;SDS_P1;SDS_P2;PMS_P1;PMS_P2;Temp;Humidity;BMP_temperature;BMP_pressure;BME280_temperature;BME280_humidity;BME280_pressure;Samples;Min_cycle;Max_cycle;Signal;HPM_P1;HPM_P2
2024/03/24 00:01:27;;;;;;;9.45;8.10;;;;;;;;;;4978569;28;20575;-92
2024/03/24 00:03:55;;;;;;;7.97;6.63;;;;;;;;;;4978487;28;20030;-93
2024/03/24 00:06:22;;;;;;;7.55;6.28;;;;;;;;;;4978682;28;20026;-93
2024/03/24 00:08:55;;;;;;;9.13;8.23;;;;;;;;;;4978406;28;20030;-92
2024/03/24 00:11:27;;;;;;;8.88;8.07;;;;;;;;;;4978411;28;20038;-93
2024/03/24 00:13:56;;;;;;;9.40;6.80;;;;;;;;;;4978548;28;20093;-93
2024/03/24 00:22:53;;;;;;;12.18;11.13;;;;;;;;;;4995804;28;20073;-93
2024/03/24 00:25:22;;;;;;;10.68;9.77;;;;;;;;;;4978951;28;20484;-93
2024/03/24 00:27:48;;;;;;;12.25;11.23;;;;;;;;;;5001628;28;20073;-91
2024/03/24 00:30:14;;;;;;;12.43;10.13;;;;;;;;;;4994919;28;20012;-92
2024/03/24 00:32:41;;;;;;;8.48;6.88;;;;;;;;;;4978172;28;20041;-93
2024/03/24 00:35:07;;;;;;;9.63;8.18;;;;;;;;;;4978450;28;20476;-91
2024/03/24 00:37:40;;;;;;;8.35;7.28;;;;;;;;;;4977982;28;20137;-92
2024/03/24 00:40:10;;;;;;;9.25;7.60;;;;;;;;;;4978069;28;20464;-93
2024/03/24 00:42:36;;;;;;;10.38;7.68;;;;;;;;;;4978520;28;20038;-93
2024/03/24 00:45:07;;;;;;;10.15;9.25;;;;;;;;;;4978103;28;20018;-93
2024/03/24 00:47:35;;;;;;;7.50;6.68;;;;;;;;;;4978475;28;20364;-93
2024/03/24 00:50:01;;;;;;;11.32;10.25;;;;;;;;;;4978363;28;20173;-93
2024/03/24 00:52:27;;;;;;;9.15;8.18;;;;;;;;;;4977844;28;20026;-94
2024/03/24 00:54:54;;;;;;;11.20;9.70;;;;;;;;;;4977884;28;20026;-91
2024/03/24 00:57:26;;;;;;;9.65;8.75;;;;;;;;;;4977874;28;20109;-93
2024/03/24 00:59:52;;;;;;;10.43;9.32;;;;;;;;;;4977713;28;20033;-91
2024/03/24 01:02:19;;;;;;;7.70;6.05;;;;;;;;;;4977620;28;20038;-93
2024/03/24 01:04:45;;;;;;;9.90;8.00;;;;;;;;;;4977766;28;20031;-93
2024/03/24 01:07:11;;;;;;;8.93;7.85;;;;;;;;;;4977350;28;20037;-91
2024/03/24 01:09:40;;;;;;;9.15;8.35;;;;;;;;;;4977321;28;20026;-93
2024/03/24 01:12:09;;;;;;;11.15;8.15;;;;;;;;;;4977433;28;20395;-91
2024/03/24 01:14:35;;;;;;;10.38;9.48;;;;;;;;;;4977639;28;20034;-93
2024/03/24 01:17:05;;;;;;;8.52;7.72;;;;;;;;;;4976320;28;20121;-91
2024/03/24 01:19:37;;;;;;;9.63;8.18;;;;;;;;;;4977635;28;20125;-93
2024/03/24 01:22:03;;;;;;;10.40;9.43;;;;;;;;;;4980090;28;20041;-93
2024/03/24 01:24:36;;;;;;;8.02;7.18;;;;;;;;;;4981670;28;20109;-93
2024/03/24 01:27:08;;;;;;;10.13;9.18;;;;;;;;;;4990630;28;20078;-91
2024/03/24 01:29:34;;;;;;;10.02;9.20;;;;;;;;;;4949597;29;20063;-93
2024/03/24 01:32:00;;;;;;;13.02;11.82;;;;;;;;;;4944130;29;20035;-94
2024/03/24 01:34:26;;;;;;;12.38;11.40;;;;;;;;;;4943480;29;20027;-93
2024/03/24 01:36:53;;;;;;;10.63;9.55;;;;;;;;;;4943410;29;20031;-92
2024/03/24 01:39:19;;;;;;;13.13;12.13;;;;;;;;;;4943918;29;20114;-93
2024/03/24 01:41:48;;;;;;;13.80;12.73;;;;;;;;;;4947357;29;20099;-91
2024/03/24 01:44:14;;;;;;;12.65;11.48;;;;;;;;;;4942608;29;20059;-93
2024/03/24 01:46:41;;;;;;;13.70;12.48;;;;;;;;;;4942605;29;20062;-94
2024/03/24 01:49:07;;;;;;;11.95;10.82;;;;;;;;;;4943055;29;20023;-93
2024/03/24 01:51:35;;;;;;;13.15;12.07;;;;;;;;;;4959902;28;20195;-92
2024/03/24 01:54:04;;;;;;;10.80;9.88;;;;;;;;;;4981509;28;20054;-92
2024/03/24 01:56:32;;;;;;;21.60;20.25;;;;;;;;;;4980985;28;20033;-92
2024/03/24 01:58:58;;;;;;;18.70;17.50;;;;;;;;;;4981278;28;20673;-92
2024/03/24 02:04:58;;;;;;;46.77;44.17;;;;;;;;;;4998305;28;20129;-93
2024/03/24 02:07:26;;;;;;;39.25;37.13;;;;;;;;;;4964997;28;20054;-92
2024/03/24 02:09:58;;;;;;;35.22;33.08;;;;;;;;;;4985754;28;20011;-89
2024/03/24 02:12:31;;;;;;;36.55;34.45;;;;;;;;;;5003939;28;20031;-90
2024/03/24 02:14:57;;;;;;;40.67;38.45;;;;;;;;;;5004922;28;20019;-93
2024/03/24 02:17:24;;;;;;;36.97;34.92;;;;;;;;;;4996227;28;20038;-93
2024/03/24 02:19:50;;;;;;;39.10;36.78;;;;;;;;;;4983522;28;20133;-93
2024/03/24 02:22:22;;;;;;;35.55;33.47;;;;;;;;;;4982541;28;20034;-93
2024/03/24 02:24:52;;;;;;;41.53;39.20;;;;;;;;;;4980565;28;20022;-93
2024/03/24 02:27:21;;;;;;;39.17;36.85;;;;;;;;;;4975201;28;20117;-93
2024/03/24 02:32:53;;;;;;;47.47;44.87;;;;;;;;;;4997127;28;20113;-93
2024/03/24 02:35:19;;;;;;;46.30;43.63;;;;;;;;;;4980395;28;20037;-93
2024/03/24 02:37:48;;;;;;;43.78;41.28;;;;;;;;;;4980228;28;20026;-93
2024/03/24 02:40:17;;;;;;;42.35;40.05;;;;;;;;;;4980268;28;20495;-92
2024/03/24 02:42:44;;;;;;;41.00;38.67;;;;;;;;;;4980226;28;20121;-93
2024/03/24 02:45:13;;;;;;;40.05;37.80;;;;;;;;;;4980240;28;20045;-93
2024/03/24 02:47:48;;;;;;;38.55;36.28;;;;;;;;;;4979915;28;20098;-92
2024/03/24 02:50:20;;;;;;;41.03;38.72;;;;;;;;;;4980141;28;20069;-93
2024/03/24 02:52:52;;;;;;;41.05;38.70;;;;;;;;;;4979990;28;20071;-93
2024/03/24 02:55:25;;;;;;;33.95;32.15;;;;;;;;;;4980164;28;20026;-94
2024/03/24 02:58:00;;;;;;;41.63;39.22;;;;;;;;;;4979853;28;20042;-93
2024/03/24 03:00:29;;;;;;;39.03;36.83;;;;;;;;;;4977214;28;20022;-92
2024/03/24 03:02:59;;;;;;;39.38;37.13;;;;;;;;;;4979510;28;20038;-94
2024/03/24 03:05:28;;;;;;;33.53;31.52;;;;;;;;;;4979774;28;20030;-93
2024/03/24 03:08:02;;;;;;;35.58;33.47;;;;;;;;;;4979820;28;20471;-93
2024/03/24 03:10:35;;;;;;;34.67;32.67;;;;;;;;;;4979140;28;20039;-93
2024/03/24 03:13:04;;;;;;;39.20;36.88;;;;;;;;;;4979164;28;20030;-94
2024/03/24 03:15:34;;;;;;;34.25;32.15;;;;;;;;;;4979865;28;20023;-94
2024/03/24 03:18:00;;;;;;;37.45;35.08;;;;;;;;;;4979754;28;20030;-92
2024/03/24 03:20:29;;;;;;;38.28;36.17;;;;;;;;;;4979930;28;20061;-92
2024/03/24 03:23:01;;;;;;;33.97;31.95;;;;;;;;;;4982331;28;20038;-92
2024/03/24 03:28:30;;;;;;;32.42;30.23;;;;;;;;;;4997305;28;20073;-91
2024/03/24 03:30:56;;;;;;;40.67;38.40;;;;;;;;;;4979296;28;20037;-93
2024/03/24 03:33:28;;;;;;;41.28;38.85;;;;;;;;;;4979270;28;20045;-92
2024/03/24 03:36:00;;;;;;;38.22;35.88;;;;;;;;;;4983030;28;20034;-92
2024/03/24 03:38:26;;;;;;;37.30;35.15;;;;;;;;;;4976905;28;20034;-93
2024/03/24 03:41:01;;;;;;;48.90;46.20;;;;;;;;;;4980433;28;20037;-92
2024/03/24 03:43:39;;;;;;;42.92;40.40;;;;;;;;;;4979432;28;20598;-92
2024/03/24 03:46:11;;;;;;;44.33;41.88;;;;;;;;;;4979682;28;20046;-93
2024/03/24 03:48:44;;;;;;;43.90;41.40;;;;;;;;;;4955211;28;20191;-93
2024/03/24 03:51:29;;;;;;;46.72;43.92;;;;;;;;;;4940341;29;20048;-93
2024/03/24 03:54:00;;;;;;;46.20;43.50;;;;;;;;;;4940126;29;20043;-92
2024/03/24 03:56:27;;;;;;;49.08;46.28;;;;;;;;;;4961396;28;20015;-92
2024/03/24 03:58:53;;;;;;;42.78;40.38;;;;;;;;;;4959792;29;20050;-92
2024/03/24 04:01:19;;;;;;;50.17;47.40;;;;;;;;;;4939668;29;20049;-93
2024/03/24 04:03:48;;;;;;;53.28;50.33;;;;;;;;;;4939614;29;20039;-93
2024/03/24 04:06:15;;;;;;;48.58;45.35;;;;;;;;;;4939559;29;20030;-91
2024/03/24 04:08:47;;;;;;;57.17;54.03;;;;;;;;;;4939935;29;20058;-94
2024/03/24 04:11:14;;;;;;;45.83;43.35;;;;;;;;;;4941687;29;20174;-90
2024/03/24 04:13:51;;;;;;;50.10;47.30;;;;;;;;;;4950408;29;20042;-92
2024/03/24 04:16:21;;;;;;;55.10;52.00;;;;;;;;;;4940337;29;20163;-93
2024/03/24 04:18:50;;;;;;;41.08;38.60;;;;;;;;;;4962463;28;20041;-93
2024/03/24 04:21:19;;;;;;;53.20;49.85;;;;;;;;;;4978789;28;20030;-93
2024/03/24 04:23:45;;;;;;;52.28;49.25;;;;;;;;;;4978529;28;20030;-93
2024/03/24 04:26:14;;;;;;;47.95;45.33;;;;;;;;;;4978598;28;20030;-94
2024/03/24 04:28:40;;;;;;;59.65;56.28;;;;;;;;;;4978884;28;20096;-92
2024/03/24 04:31:15;;;;;;;58.60;55.38;;;;;;;;;;4978138;28;20030;-93
2024/03/24 04:33:50;;;;;;;54.60;51.30;;;;;;;;;;4976545;28;20034;-93
2024/03/24 04:36:16;;;;;;;48.30;45.50;;;;;;;;;;4973521;28;20077;-91
2024/03/24 04:38:46;;;;;;;51.80;48.88;;;;;;;;;;4979333;28;20464;-94
2024/03/24 04:41:15;;;;;;;53.60;50.00;;;;;;;;;;4981147;28;20018;-95
2024/03/24 04:43:41;;;;;;;52.88;49.85;;;;;;;;;;4960729;28;20492;-94
2024/03/24 04:46:25;;;;;;;46.90;44.03;;;;;;;;;;4981081;28;20045;-92
2024/03/24 04:48:55;;;;;;;54.38;51.10;;;;;;;;;;4990386;28;20061;-93
2024/03/24 04:51:27;;;;;;;40.13;37.55;;;;;;;;;;4983948;28;20093;-92
2024/03/24 04:53:56;;;;;;;48.95;45.85;;;;;;;;;;4978391;28;20040;-93
2024/03/24 04:56:26;;;;;;;49.85;46.88;;;;;;;;;;4977231;28;20069;-92
2024/03/24 04:58:58;;;;;;;59.42;55.85;;;;;;;;;;4978447;28;20022;-94
2024/03/24 05:01:27;;;;;;;57.78;54.55;;;;;;;;;;4978961;28;20038;-92
2024/03/24 05:03:59;;;;;;;60.55;56.95;;;;;;;;;;4977884;28;20026;-94
2024/03/24 05:07:02;;;;;;;51.58;48.60;;;;;;;;;;4977393;28;20039;-93
2024/03/24 05:09:28;;;;;;;51.20;48.35;;;;;;;;;;4977874;28;20368;-93
2024/03/24 05:11:57;;;;;;;52.42;49.47;;;;;;;;;;4939983;29;20035;-94
2024/03/24 05:14:26;;;;;;;48.58;45.78;;;;;;;;;;4939406;29;20051;-94
2024/03/24 05:16:53;;;;;;;47.00;44.33;;;;;;;;;;4939187;29;20028;-92
2024/03/24 05:19:31;;;;;;;54.42;51.33;;;;;;;;;;4939251;29;20027;-94
2024/03/24 05:22:03;;;;;;;55.00;51.75;;;;;;;;;;4939436;29;20066;-94
2024/03/24 05:24:29;;;;;;;52.25;49.10;;;;;;;;;;4939901;29;20078;-94
2024/03/24 05:27:01;;;;;;;36.38;34.28;;;;;;;;;;4951566;28;20012;-92
2024/03/24 05:29:27;;;;;;;36.95;34.55;;;;;;;;;;5097954;23;20047;-92
2024/03/24 05:32:01;;;;;;;33.08;31.08;;;;;;;;;;4985653;28;20026;-93
2024/03/24 05:40:36;;;;;;;56.80;53.60;;;;;;;;;;5103481;23;20077;-92
2024/03/24 05:43:02;;;;;;;27.17;25.48;;;;;;;;;;4975036;28;20035;-93
2024/03/24 05:45:40;;;;;;;37.72;35.47;;;;;;;;;;4961408;28;20054;-93
2024/03/24 05:48:10;;;;;;;40.95;38.38;;;;;;;;;;4958179;28;20050;-93
2024/03/24 05:51:02;;;;;;;21.95;20.58;;;;;;;;;;4958202;28;20577;-91
2024/03/24 05:53:33;;;;;;;37.92;35.70;;;;;;;;;;4922876;28;20118;-92
2024/03/24 05:56:06;;;;;;;27.42;25.67;;;;;;;;;;4957571;28;20035;-92
2024/03/24 05:58:47;;;;;;;32.10;30.27;;;;;;;;;;4958087;28;20038;-91
2024/03/24 06:01:16;;;;;;;23.92;22.40;;;;;;;;;;4958521;28;20070;-93
2024/03/24 06:03:42;;;;;;;24.13;22.52;;;;;;;;;;4960236;28;20031;-93
2024/03/24 06:06:08;;;;;;;21.13;19.80;;;;;;;;;;4959694;28;20082;-91
2024/03/24 06:12:03;;;;;;;15.37;14.33;;;;;;;;;;4980546;28;20395;-92
2024/03/24 06:14:32;;;;;;;26.75;24.88;;;;;;;;;;4958886;28;20031;-95
2024/03/24 06:17:07;;;;;;;17.98;16.83;;;;;;;;;;4943416;29;20078;-92
2024/03/24 06:19:34;;;;;;;28.92;27.10;;;;;;;;;;4943393;29;20051;-93
2024/03/24 06:22:00;;;;;;;20.00;18.45;;;;;;;;;;4942442;29;20047;-93
2024/03/24 06:24:29;;;;;;;23.52;22.08;;;;;;;;;;4942496;29;20081;-94
2024/03/24 06:27:01;;;;;;;26.20;24.58;;;;;;;;;;4944937;29;20067;-91
2024/03/24 06:29:33;;;;;;;28.65;26.75;;;;;;;;;;4951681;29;20121;-94
2024/03/24 06:32:02;;;;;;;49.22;46.35;;;;;;;;;;4943822;29;20521;-91
2024/03/24 06:40:34;;;;;;;22.60;21.17;;;;;;;;;;4939052;29;20169;-94
2024/03/24 06:43:03;;;;;;;30.63;28.65;;;;;;;;;;4925495;29;20043;-95
2024/03/24 06:45:36;;;;;;;28.70;27.00;;;;;;;;;;4942135;29;20091;-96
2024/03/24 06:48:15;;;;;;;26.63;25.02;;;;;;;;;;4957186;29;20096;-95
2024/03/24 06:50:41;;;;;;;20.90;19.48;;;;;;;;;;4946827;29;20042;-94
2024/03/24 06:53:14;;;;;;;16.23;15.25;;;;;;;;;;4966028;28;20525;-94
2024/03/24 06:55:55;;;;;;;16.60;15.60;;;;;;;;;;4936581;29;20035;-92
2024/03/24 06:58:35;;;;;;;17.08;15.95;;;;;;;;;;4938756;29;20031;-93
2024/03/24 07:01:19;;;;;;;9.57;8.80;;;;;;;;;;4941514;29;20126;-92
2024/03/24 07:03:45;;;;;;;11.88;11.07;;;;;;;;;;4943832;29;20043;-92
2024/03/24 07:06:14;;;;;;;11.35;10.55;;;;;;;;;;4950775;29;20031;-95
2024/03/24 07:08:41;;;;;;;12.77;11.88;;;;;;;;;;4934228;29;20035;-94
2024/03/24 07:11:17;;;;;;;12.15;11.38;;;;;;;;;;4946557;29;20039;-93
2024/03/24 07:13:47;;;;;;;12.50;11.68;;;;;;;;;;4942993;29;20035;-93
2024/03/24 07:16:22;;;;;;;11.77;10.98;;;;;;;;;;4943264;29;20130;-95
2024/03/24 07:19:04;;;;;;;;;;;;;;;;;;;;;
2024/03/24 07:32:11;;;;;;;11.82;10.73;;;;;;;;;;4957801;29;20136;-92
2024/03/24 07:34:41;;;;;;;11.10;10.38;;;;;;;;;;4972647;28;20031;-91
2024/03/24 07:37:13;;;;;;;9.90;9.07;;;;;;;;;;4960493;28;20097;-93
2024/03/24 07:39:46;;;;;;;10.27;9.57;;;;;;;;;;4974637;28;20373;-92
2024/03/24 07:42:12;;;;;;;11.77;10.98;;;;;;;;;;4944089;29;20408;-91
2024/03/24 07:44:39;;;;;;;11.10;10.38;;;;;;;;;;4941506;29;20063;-93
2024/03/24 07:47:05;;;;;;;11.35;10.55;;;;;;;;;;4940999;29;20035;-91
2024/03/24 07:49:40;;;;;;;9.82;9.23;;;;;;;;;;4940637;29;20039;-91
2024/03/24 07:52:13;;;;;;;9.77;9.05;;;;;;;;;;4941328;29;20055;-91
2024/03/24 07:54:42;;;;;;;8.68;8.15;;;;;;;;;;4945291;29;20113;-92
2024/03/24 07:57:14;;;;;;;9.05;8.35;;;;;;;;;;4939922;29;20035;-92
2024/03/24 07:59:40;;;;;;;11.52;10.73;;;;;;;;;;4943613;29;20055;-92
2024/03/24 08:02:06;;;;;;;10.65;9.95;;;;;;;;;;4940251;29;20130;-91
2024/03/24 08:04:32;;;;;;;10.10;9.40;;;;;;;;;;4940516;29;20039;-93
2024/03/24 08:06:58;;;;;;;12.68;11.73;;;;;;;;;;4939783;29;20094;-91
2024/03/24 08:09:24;;;;;;;12.07;11.25;;;;;;;;;;4940221;29;20074;-89
2024/03/24 08:11:56;;;;;;;11.23;10.52;;;;;;;;;;4940150;29;20027;-91
2024/03/24 08:14:23;;;;;;;9.75;9.15;;;;;;;;;;4940494;29;20054;-91
2024/03/24 08:16:57;;;;;;;9.32;8.40;;;;;;;;;;4940299;29;20027;-91
2024/03/24 08:19:29;;;;;;;9.95;9.27;;;;;;;;;;4944621;28;20520;-94
2024/03/24 08:22:12;;;;;;;10.13;9.32;;;;;;;;;;4942354;28;20152;-92
2024/03/24 08:24:45;;;;;;;9.77;9.15;;;;;;;;;;4937533;29;20043;-93
2024/03/24 08:27:27;;;;;;;9.43;8.73;;;;;;;;;;4936787;29;20123;-92
2024/03/24 08:29:53;;;;;;;8.75;8.18;;;;;;;;;;4938148;28;20066;-91
2024/03/24 08:32:22;;;;;;;10.23;9.60;;;;;;;;;;4962664;28;20424;-92
2024/03/24 08:34:57;;;;;;;11.20;10.43;;;;;;;;;;4962344;28;20032;-95
2024/03/24 08:37:29;;;;;;;10.30;9.70;;;;;;;;;;4962441;28;20030;-92
2024/03/24 08:39:59;;;;;;;13.52;12.63;;;;;;;;;;4974575;28;20015;-94
2024/03/24 08:42:31;;;;;;;14.40;13.45;;;;;;;;;;4941133;28;20038;-92
2024/03/24 08:45:00;;;;;;;12.02;11.23;;;;;;;;;;4963556;28;20039;-92
2024/03/24 08:47:33;;;;;;;12.90;12.00;;;;;;;;;;4959402;28;20058;-94
2024/03/24 08:50:05;;;;;;;11.32;10.52;;;;;;;;;;4960326;28;20187;-92
2024/03/24 08:52:40;;;;;;;10.32;9.73;;;;;;;;;;4960803;28;20145;-93
2024/03/24 08:55:09;;;;;;;9.90;9.27;;;;;;;;;;4950608;29;20058;-93
2024/03/24 08:57:41;;;;;;;11.25;10.45;;;;;;;;;;4957920;28;20039;-94
2024/03/24 09:03:11;;;;;;;11.40;10.70;;;;;;;;;;4956840;29;20046;-92
2024/03/24 09:05:46;;;;;;;11.80;11.00;;;;;;;;;;4927321;28;20023;-92
2024/03/24 09:08:15;;;;;;;14.80;13.90;;;;;;;;;;4965695;28;20050;-91
2024/03/24 09:10:44;;;;;;;14.73;13.82;;;;;;;;;;4958658;28;20027;-92
2024/03/24 09:13:10;;;;;;;14.98;14.07;;;;;;;;;;4960450;28;20035;-91
2024/03/24 09:15:42;;;;;;;14.45;13.52;;;;;;;;;;4959534;28;20027;-93
2024/03/24 09:18:09;;;;;;;17.67;16.60;;;;;;;;;;4960668;28;20058;-92
2024/03/24 09:20:39;;;;;;;15.77;14.77;;;;;;;;;;4960099;28;20090;-91
2024/03/24 09:23:10;;;;;;;19.48;18.27;;;;;;;;;;4939806;29;20041;-92
2024/03/24 09:25:42;;;;;;;19.20;18.00;;;;;;;;;;4940401;29;20083;-92
2024/03/24 09:28:14;;;;;;;16.75;15.65;;;;;;;;;;4942385;29;20067;-93
2024/03/24 09:30:41;;;;;;;20.65;19.38;;;;;;;;;;4937364;29;20048;-91
2024/03/24 09:33:15;;;;;;;22.27;20.95;;;;;;;;;;4939825;29;20032;-92
2024/03/24 09:35:51;;;;;;;24.67;23.15;;;;;;;;;;4939633;29;20153;-90
2024/03/24 09:38:24;;;;;;;28.30;26.55;;;;;;;;;;4938609;29;20034;-90
2024/03/24 09:40:58;;;;;;;24.98;23.48;;;;;;;;;;4940644;29;20037;-92
2024/03/24 09:43:31;;;;;;;33.42;31.42;;;;;;;;;;4943214;29;20039;-92
2024/03/24 09:46:01;;;;;;;35.55;33.47;;;;;;;;;;4943406;29;20366;-91
2024/03/24 09:48:31;;;;;;;29.35;27.67;;;;;;;;;;4944348;29;20483;-92
2024/03/24 09:51:13;;;;;;;38.03;35.83;;;;;;;;;;4943514;29;20433;-91
2024/03/24 09:53:46;;;;;;;36.55;34.35;;;;;;;;;;4943317;29;20042;-93
2024/03/24 09:56:21;;;;;;;28.92;27.17;;;;;;;;;;4943395;29;20027;-91
2024/03/24 09:58:51;;;;;;;38.42;36.22;;;;;;;;;;4924802;29;20090;-90
2024/03/24 10:01:23;;;;;;;41.40;39.10;;;;;;;;;;4923698;29;20031;-92
2024/03/24 10:03:52;;;;;;;32.88;30.95;;;;;;;;;;4923997;29;20639;-92
2024/03/24 10:06:22;;;;;;;38.72;36.47;;;;;;;;;;4923871;29;20432;-90
2024/03/24 10:08:54;;;;;;;35.83;33.72;;;;;;;;;;4923836;29;20027;-92
2024/03/24 10:11:45;;;;;;;38.33;36.05;;;;;;;;;;4952680;28;20030;-91
2024/03/24 10:14:11;;;;;;;36.15;34.08;;;;;;;;;;4961203;28;20069;-92
2024/03/24 10:16:40;;;;;;;32.55;30.77;;;;;;;;;;4961851;28;20030;-90
2024/03/24 10:19:15;;;;;;;37.95;35.75;;;;;;;;;;4962293;28;20038;-92
2024/03/24 10:21:41;;;;;;;32.58;30.70;;;;;;;;;;4946411;29;20043;-92
2024/03/24 10:24:11;;;;;;;34.15;32.25;;;;;;;;;;4942293;29;20031;-91
2024/03/24 10:26:37;;;;;;;29.33;27.73;;;;;;;;;;4942534;29;20033;-92
2024/03/24 10:29:09;;;;;;;34.75;32.90;;;;;;;;;;4941659;29;20035;-92
2024/03/24 10:31:40;;;;;;;37.15;35.03;;;;;;;;;;4950184;28;20177;-92
2024/03/24 10:34:06;;;;;;;34.13;32.08;;;;;;;;;;4962343;28;20039;-91
2024/03/24 10:36:40;;;;;;;35.95;33.85;;;;;;;;;;4963268;28;20536;-91
2024/03/24 10:39:26;;;;;;;30.75;28.95;;;;;;;;;;4961598;28;20087;-92
2024/03/24 10:41:58;;;;;;;32.00;30.20;;;;;;;;;;4962017;28;20031;-91
2024/03/24 10:44:30;;;;;;;31.73;29.90;;;;;;;;;;4961388;28;20030;-92
2024/03/24 10:47:03;;;;;;;33.28;31.35;;;;;;;;;;4962933;28;20027;-89
2024/03/24 10:49:32;;;;;;;31.05;29.17;;;;;;;;;;4981571;28;20050;-91
2024/03/24 10:52:07;;;;;;;27.83;26.10;;;;;;;;;;4970495;28;20534;-91
2024/03/24 10:54:34;;;;;;;28.58;26.88;;;;;;;;;;4961055;28;20355;-90
2024/03/24 10:57:07;;;;;;;35.58;33.63;;;;;;;;;;4960940;28;20471;-92
2024/03/24 11:02:37;;;;;;;36.38;34.35;;;;;;;;;;4991553;28;20078;-92
2024/03/24 11:08:46;;;;;;;;;;;;;;;;;;;;;
2024/03/24 11:11:16;;;;;;;33.83;31.92;;;;;;;;;;4969810;29;20055;-93
2024/03/24 11:13:53;;;;;;;34.55;32.55;;;;;;;;;;4942029;29;20032;-93
2024/03/24 11:16:25;;;;;;;36.95;34.95;;;;;;;;;;4946101;29;20079;-94
2024/03/24 11:18:54;;;;;;;37.97;35.72;;;;;;;;;;4944285;29;20039;-92
2024/03/24 11:41:24;;;;;;;34.30;32.38;;;;;;;;;;4972970;28;20345;-92
2024/03/24 11:44:08;;;;;;;35.13;33.22;;;;;;;;;;4971416;28;20511;-93
2024/03/24 11:52:44;;;;;;;30.42;28.77;;;;;;;;;;4959674;29;20041;-93
2024/03/24 11:55:26;;;;;;;31.90;30.08;;;;;;;;;;4950519;28;20050;-95
2024/03/24 11:58:22;;;;;;;25.33;23.88;;;;;;;;;;4962244;28;20422;-93
2024/03/24 12:01:03;;;;;;;22.30;21.00;;;;;;;;;;4904460;29;20077;-94
2024/03/24 12:03:38;;;;;;;29.38;27.77;;;;;;;;;;4934970;29;20044;-90
2024/03/24 12:06:06;;;;;;;23.60;22.33;;;;;;;;;;4902722;29;20052;-92
2024/03/24 12:08:44;;;;;;;35.50;33.50;;;;;;;;;;4886249;29;20498;-91
2024/03/24 12:13:56;;;;;;;38.92;36.83;;;;;;;;;;4924713;29;20127;-93
2024/03/24 12:16:23;;;;;;;34.45;32.55;;;;;;;;;;4903594;29;20036;-92
2024/03/24 12:18:52;;;;;;;27.27;25.50;;;;;;;;;;4907120;29;20498;-91
2024/03/24 12:21:18;;;;;;;24.75;23.45;;;;;;;;;;4921665;29;20047;-92
2024/03/24 12:23:50;;;;;;;21.85;20.65;;;;;;;;;;4912258;29;20298;-93
2024/03/24 12:26:29;;;;;;;36.30;34.20;;;;;;;;;;4901395;29;20036;-92
2024/03/24 12:29:28;;;;;;;36.38;34.45;;;;;;;;;;4901675;29;20044;-90
2024/03/24 12:32:00;;;;;;;44.25;41.90;;;;;;;;;;4928421;29;20071;-91
2024/03/24 12:37:29;;;;;;;44.20;41.88;;;;;;;;;;4946229;28;20102;-90
2024/03/24 12:40:01;;;;;;;27.38;25.90;;;;;;;;;;4921817;29;20035;-91
2024/03/24 12:42:27;;;;;;;31.92;30.10;;;;;;;;;;4920903;29;20119;-92
2024/03/24 12:45:20;;;;;;;28.17;26.58;;;;;;;;;;4920756;29;20397;-92
2024/03/24 12:47:46;;;;;;;28.52;26.95;;;;;;;;;;4920314;29;20035;-93
2024/03/24 12:50:37;;;;;;;29.77;27.98;;;;;;;;;;4922260;29;20027;-91
2024/03/24 12:53:25;;;;;;;33.13;31.10;;;;;;;;;;4902407;29;20032;-93
2024/03/24 12:55:59;;;;;;;32.70;30.90;;;;;;;;;;4918416;29;20036;-92
2024/03/24 12:58:39;;;;;;;36.45;33.75;;;;;;;;;;4917103;29;20485;-92
2024/03/24 13:01:11;;;;;;;30.30;28.52;;;;;;;;;;4917920;29;20397;-88
2024/03/24 13:03:44;;;;;;;29.15;27.45;;;;;;;;;;4953378;29;20046;-89
2024/03/24 13:06:20;;;;;;;28.35;26.70;;;;;;;;;;4939513;29;20027;-89
2024/03/24 13:08:59;;;;;;;33.78;31.88;;;;;;;;;;4939447;29;20035;-90
2024/03/24 13:11:25;;;;;;;30.90;29.17;;;;;;;;;;4939480;29;20023;-89
2024/03/24 13:13:52;;;;;;;26.20;24.70;;;;;;;;;;4938282;29;20067;-89
2024/03/24 13:16:42;;;;;;;31.98;30.17;;;;;;;;;;4938472;29;20482;-89
2024/03/24 13:19:17;;;;;;;33.55;31.70;;;;;;;;;;4939212;29;20480;-89
2024/03/24 13:22:03;;;;;;;25.98;24.23;;;;;;;;;;4938783;29;20046;-91
2024/03/24 13:25:04;;;;;;;26.80;25.02;;;;;;;;;;4933603;29;20054;-92
2024/03/24 13:27:36;;;;;;;27.35;25.33;;;;;;;;;;4867916;29;20037;-91
2024/03/24 13:30:08;;;;;;;24.35;22.90;;;;;;;;;;4870553;29;20092;-92
2024/03/24 13:32:48;;;;;;;;;;;;;;;;;;;;;
2024/03/24 13:35:14;;;;;;;27.27;25.67;;;;;;;;;;4930306;29;20040;-93
2024/03/24 13:37:45;;;;;;;25.70;24.10;;;;;;;;;;4940554;28;20126;-91
2024/03/24 13:40:35;;;;;;;30.67;28.85;;;;;;;;;;4941336;29;20079;-91
2024/03/24 13:43:36;;;;;;;31.45;29.60;;;;;;;;;;4939566;29;20031;-90
2024/03/24 13:46:35;;;;;;;28.98;27.38;;;;;;;;;;4879069;29;20501;-92
2024/03/24 13:49:01;;;;;;;23.35;21.95;;;;;;;;;;4816371;29;20117;-92
2024/03/24 13:51:37;;;;;;;31.50;29.70;;;;;;;;;;4863681;29;20137;-93
2024/03/24 13:54:07;;;;;;;39.35;37.28;;;;;;;;;;4907936;29;20063;-92
2024/03/24 13:59:26;;;;;;;35.95;34.05;;;;;;;;;;4905075;28;20032;-91
2024/03/24 14:01:52;;;;;;;40.65;38.45;;;;;;;;;;4960980;28;20027;-93
2024/03/24 14:04:22;;;;;;;25.67;24.27;;;;;;;;;;4944882;29;20070;-92
2024/03/24 14:06:54;;;;;;;28.50;26.70;;;;;;;;;;4939420;29;20023;-90
2024/03/24 14:09:24;;;;;;;26.40;24.95;;;;;;;;;;4937505;29;20082;-93
2024/03/24 14:12:27;;;;;;;29.05;27.45;;;;;;;;;;4940075;29;20130;-91
2024/03/24 14:14:53;;;;;;;29.60;27.92;;;;;;;;;;4947037;28;20034;-90
2024/03/24 14:17:48;;;;;;;26.27;24.83;;;;;;;;;;4958296;28;20027;-92
2024/03/24 14:20:15;;;;;;;27.77;26.17;;;;;;;;;;4941544;29;20604;-92
2024/03/24 14:23:01;;;;;;;25.10;23.63;;;;;;;;;;4940711;29;20062;-92
2024/03/24 14:25:37;;;;;;;34.78;32.80;;;;;;;;;;4941356;29;20050;-95
2024/03/24 14:28:03;;;;;;;33.60;31.70;;;;;;;;;;4942168;29;20039;-91
2024/03/24 14:33:29;;;;;;;24.50;23.10;;;;;;;;;;4914034;29;20044;-92
2024/03/24 14:36:08;;;;;;;28.70;27.17;;;;;;;;;;4876890;29;20026;-91
2024/03/24 14:38:38;;;;;;;24.50;23.20;;;;;;;;;;4896078;29;20060;-90
2024/03/24 14:41:26;;;;;;;27.48;25.98;;;;;;;;;;4888858;29;20037;-92
2024/03/24 14:44:30;;;;;;;25.30;23.80;;;;;;;;;;4876126;29;20036;-93
2024/03/24 14:47:22;;;;;;;20.60;19.42;;;;;;;;;;4883163;29;20096;-94
2024/03/24 14:59:47;;;;;;;67.50;63.90;;;;;;;;;;4874633;29;20139;-94
2024/03/24 15:02:32;;;;;;;36.90;34.83;;;;;;;;;;4849006;29;20065;-92
2024/03/24 15:08:43;;;;;;;17.48;16.38;;;;;;;;;;4863833;29;20086;-91
2024/03/24 15:17:06;;;;;;;28.73;27.00;;;;;;;;;;4827478;29;20465;-91
2024/03/24 15:20:01;;;;;;;17.98;16.88;;;;;;;;;;4840332;29;20038;-94
2024/03/24 15:22:50;;;;;;;32.25;30.40;;;;;;;;;;4839397;29;20041;-96
2024/03/24 15:25:29;;;;;;;17.90;16.80;;;;;;;;;;4889998;29;20622;-94
2024/03/24 15:28:14;;;;;;;37.08;34.95;;;;;;;;;;4879612;29;20037;-95
2024/03/24 15:30:40;;;;;;;25.92;24.45;;;;;;;;;;4907433;29;20036;-94
2024/03/24 15:36:40;;;;;;;32.57;30.60;;;;;;;;;;5078354;23;20068;-93
2024/03/24 15:39:12;;;;;;;35.90;33.85;;;;;;;;;;4983431;28;20113;-94
2024/03/24 15:41:44;;;;;;;17.33;16.30;;;;;;;;;;4973007;28;20035;-90
2024/03/24 15:44:10;;;;;;;24.35;22.98;;;;;;;;;;4961000;28;20095;-93
2024/03/24 15:46:36;;;;;;;27.27;25.67;;;;;;;;;;4961184;28;20022;-93
2024/03/24 15:49:11;;;;;;;28.38;26.67;;;;;;;;;;4960369;28;20042;-92
2024/03/24 15:52:06;;;;;;;24.67;23.15;;;;;;;;;;4960165;28;20019;-91
2024/03/24 15:54:36;;;;;;;24.45;22.98;;;;;;;;;;4960849;28;20469;-91
2024/03/24 15:57:27;;;;;;;23.40;22.00;;;;;;;;;;4964711;28;20023;-93
2024/03/24 16:00:10;;;;;;;24.35;22.95;;;;;;;;;;4983312;28;20073;-92
2024/03/24 16:02:52;;;;;;;22.15;20.73;;;;;;;;;;4985737;28;20399;-95
2024/03/24 16:05:22;;;;;;;25.40;23.80;;;;;;;;;;4982003;28;20442;-95
2024/03/24 16:08:28;;;;;;;25.52;23.85;;;;;;;;;;4985507;28;20113;-93
2024/03/24 16:11:17;;;;;;;23.67;22.20;;;;;;;;;;4943713;28;20451;-95
2024/03/24 16:13:54;;;;;;;21.30;20.05;;;;;;;;;;4964976;28;20034;-91
2024/03/24 16:16:27;;;;;;;23.95;22.40;;;;;;;;;;4978990;28;20033;-91
2024/03/24 16:18:53;;;;;;;30.35;28.63;;;;;;;;;;4979545;28;20034;-93
2024/03/24 16:21:41;;;;;;;19.80;18.70;;;;;;;;;;4982025;28;20025;-92
2024/03/24 16:24:23;;;;;;;;;;;;;;;;;;;;;
2024/03/24 16:26:53;;;;;;;22.75;21.45;;;;;;;;;;4996208;28;20514;-91
2024/03/24 16:29:20;;;;;;;26.60;25.10;;;;;;;;;;4978514;28;20057;-93
2024/03/24 16:31:50;;;;;;;25.52;24.13;;;;;;;;;;4982408;28;20081;-93
2024/03/24 16:34:48;;;;;;;28.70;27.05;;;;;;;;;;4945428;28;20035;-94
2024/03/24 16:37:23;;;;;;;28.65;27.05;;;;;;;;;;4938829;29;20453;-94
2024/03/24 16:39:49;;;;;;;21.30;20.10;;;;;;;;;;4960058;28;20042;-92
2024/03/24 16:42:34;;;;;;;26.38;24.88;;;;;;;;;;4982202;28;20030;-94
2024/03/24 16:45:14;;;;;;;27.95;26.35;;;;;;;;;;4981090;28;20034;-92
2024/03/24 16:47:55;;;;;;;38.35;36.25;;;;;;;;;;5000621;28;20042;-92